Time;durP1;ratioP1;P1;durP2;ratioP2;P2;SDS_P1;SDS_P2;PMS_P1;PMS_P2;Temp;Humidity;BMP_temperature;BMP_pressure;BME280_temperature;BME280_humidity;BME280_pressure;Samples;Min_cycle;Max_cycle;Signal;HPM_P1;HPM_P2
2022/02/26 00:02:19;;;;;;;;;;;18.70;99.90;;;;;;5009816;28;20024;-59
2022/02/26 00:04:47;;;;;;;;;;;18.70;99.90;;;;;;5022793;28;19928;-58
2022/02/26 00:07:15;;;;;;;;;;;18.60;99.90;;;;;;5026007;28;20414;-57
2022/02/26 00:09:42;;;;;;;;;;;18.60;99.90;;;;;;5026457;28;19925;-58
2022/02/26 00:12:09;;;;;;;;;;;18.60;99.90;;;;;;5011455;28;19925;-57
2022/02/26 00:14:37;;;;;;;;;;;18.50;99.90;;;;;;5026267;28;20301;-60
2022/02/26 00:17:05;;;;;;;;;;;18.50;99.90;;;;;;5011665;28;19928;-58
2022/02/26 00:19:34;;;;;;;;;;;18.60;99.90;;;;;;5028500;28;20400;-57
2022/02/26 00:22:01;;;;;;;;;;;18.50;99.90;;;;;;5027224;28;19925;-57
2022/02/26 00:24:28;;;;;;;;;;;18.50;99.90;;;;;;5004601;28;19929;-59
2022/02/26 00:26:56;;;;;;;;;;;18.50;99.90;;;;;;5011636;28;19940;-58
2022/02/26 00:29:24;;;;;;;;;;;18.50;99.90;;;;;;5020472;28;19932;-57
2022/02/26 00:31:52;;;;;;;;;;;18.50;99.90;;;;;;5028153;28;19928;-59
2022/02/26 00:34:20;;;;;;;;;;;18.50;99.90;;;;;;5009542;28;19921;-57
2022/02/26 00:36:47;;;;;;;;;;;18.50;99.90;;;;;;5023049;28;20399;-59
2022/02/26 00:39:14;;;;;;;;;;;18.50;99.90;;;;;;5024333;28;19929;-53
2022/02/26 00:41:41;;;;;;;;;;;18.50;99.90;;;;;;5019550;28;19921;-58
2022/02/26 00:44:09;;;;;;;;;;;18.50;99.90;;;;;;5011713;28;19921;-57
2022/02/26 00:46:37;;;;;;;;;;;18.50;99.90;;;;;;5019577;28;19932;-58
2022/02/26 00:51:50;;;;;;;;;;;18.40;99.90;;;;;;5014820;28;20420;-59
2022/02/26 00:54:17;;;;;;;;;;;18.40;99.90;;;;;;5020736;28;20397;-61
2022/02/26 00:56:44;;;;;;;;;;;18.40;99.90;;;;;;5020037;28;19928;-57
2022/02/26 00:59:13;;;;;;;;;;;18.40;99.90;;;;;;5016254;28;19940;-57
2022/02/26 01:01:40;;;;;;;;;;;18.40;99.90;;;;;;5018258;28;19944;-58
2022/02/26 01:04:08;;;;;;;;;;;18.40;99.90;;;;;;5003494;28;19936;-56
2022/02/26 01:06:35;;;;;;;;;;;18.30;99.90;;;;;;5020729;28;19940;-58
2022/02/26 01:09:03;;;;;;;;;;;18.40;99.90;;;;;;5021616;28;19925;-57
2022/02/26 01:11:31;;;;;;;;;;;18.30;99.90;;;;;;5019726;28;19925;-58
2022/02/26 01:13:58;;;;;;;;;;;18.30;99.90;;;;;;5010615;28;19936;-57
2022/02/26 01:16:31;;;;;;;;;;;18.30;99.90;;;;;;5013831;28;19932;-59
2022/02/26 01:18:58;;;;;;;;;;;18.30;99.90;;;;;;5020572;28;19924;-58
2022/02/26 01:21:25;;;;;;;;;;;18.30;99.90;;;;;;5017864;28;19932;-58
2022/02/26 01:23:52;;;;;;;;;;;18.30;99.90;;;;;;5020295;28;19930;-56
2022/02/26 01:26:20;;;;;;;;;;;18.30;99.90;;;;;;5010814;28;19921;-59
2022/02/26 01:28:47;;;;;;;;;;;18.30;99.90;;;;;;5011135;28;19948;-57
2022/02/26 01:31:14;;;;;;;;;;;18.30;99.90;;;;;;5016870;28;19929;-55
2022/02/26 01:33:42;;;;;;;;;;;18.20;99.90;;;;;;5013252;28;20476;-56
2022/02/26 01:36:09;;;;;;;;;;;18.20;99.90;;;;;;5020259;28;19925;-60
2022/02/26 01:38:36;;;;;;;;;;;18.30;99.90;;;;;;5012257;28;19929;-58
2022/02/26 01:41:04;;;;;;;;;;;18.20;99.90;;;;;;5012128;28;19925;-57
2022/02/26 01:43:33;;;;;;;;;;;18.30;99.90;;;;;;5013124;28;19928;-57
2022/02/26 01:46:04;;;;;;;;;;;18.20;99.90;;;;;;5018768;28;19925;-58
2022/02/26 01:48:32;;;;;;;;;;;18.20;99.90;;;;;;5019978;28;19921;-59
2022/02/26 01:50:59;;;;;;;;;;;18.20;99.90;;;;;;5018771;28;20364;-56
2022/02/26 01:53:26;;;;;;;;;;;18.20;99.90;;;;;;5016473;28;19929;-57
2022/02/26 01:55:54;;;;;;;;;;;18.20;99.90;;;;;;5013669;28;20591;-57
2022/02/26 01:58:21;;;;;;;;;;;18.20;99.90;;;;;;5019171;28;19929;-58
2022/02/26 02:00:48;;;;;;;;;;;18.20;99.90;;;;;;5022279;28;19925;-57
2022/02/26 02:03:15;;;;;;;;;;;18.20;99.90;;;;;;5012586;28;20612;-57
2022/02/26 02:05:43;;;;;;;;;;;18.20;99.90;;;;;;5021836;28;19925;-60
2022/02/26 02:08:10;;;;;;;;;;;18.20;99.90;;;;;;5009521;28;19925;-59
2022/02/26 02:10:39;;;;;;;;;;;18.20;99.90;;;;;;5021067;28;19925;-54
2022/02/26 02:13:07;;;;;;;;;;;18.20;99.90;;;;;;4992328;28;19925;-55
2022/02/26 02:15:35;;;;;;;;;;;18.20;99.90;;;;;;5019600;28;19935;-59
2022/02/26 02:18:03;;;;;;;;;;;18.20;99.90;;;;;;5024091;28;19932;-59
2022/02/26 02:20:30;;;;;;;;;;;18.10;99.90;;;;;;5009002;28;19925;-59
2022/02/26 02:22:58;;;;;;;;;;;18.10;99.90;;;;;;5010543;28;20364;-60
2022/02/26 02:25:32;;;;;;;;;;;18.10;99.90;;;;;;5013506;28;19928;-59
2022/02/26 02:27:59;;;;;;;;;;;18.10;99.90;;;;;;5013747;28;20318;-59
2022/02/26 02:30:28;;;;;;;;;;;18.10;99.90;;;;;;5014723;28;19936;-58
2022/02/26 02:32:56;;;;;;;;;;;18.10;99.90;;;;;;5019163;28;19948;-56
2022/02/26 02:35:23;;;;;;;;;;;18.10;99.90;;;;;;5010672;28;20298;-57
2022/02/26 02:37:50;;;;;;;;;;;18.10;99.90;;;;;;5008430;28;19932;-57
2022/02/26 02:40:18;;;;;;;;;;;18.10;99.90;;;;;;5021097;28;20405;-58
2022/02/26 02:42:45;;;;;;;;;;;18.10;99.90;;;;;;5007132;28;19926;-58
2022/02/26 02:45:12;;;;;;;;;;;18.10;99.90;;;;;;5009833;28;20372;-58
2022/02/26 02:47:39;;;;;;;;;;;18.10;99.90;;;;;;5016934;28;19977;-56
2022/02/26 02:50:07;;;;;;;;;;;18.10;99.90;;;;;;5019521;28;19925;-59
2022/02/26 02:52:34;;;;;;;;;;;18.00;99.90;;;;;;5018446;28;19925;-58
2022/02/26 02:55:01;;;;;;;;;;;18.00;99.90;;;;;;5007094;28;19922;-59
2022/02/26 02:57:28;;;;;;;;;;;18.00;99.90;;;;;;5005370;28;20308;-58
2022/02/26 02:59:56;;;;;;;;;;;18.00;99.90;;;;;;5010425;28;19948;-59
2022/02/26 03:02:24;;;;;;;;;;;18.00;99.90;;;;;;5018280;28;19925;-56
2022/02/26 03:04:51;;;;;;;;;;;18.00;99.90;;;;;;5001365;28;20393;-58
2022/02/26 03:07:18;;;;;;;;;;;18.00;99.90;;;;;;4995104;28;20042;-58
2022/02/26 03:09:46;;;;;;;;;;;18.00;99.90;;;;;;5007463;28;20290;-58
2022/02/26 03:12:13;;;;;;;;;;;18.00;99.90;;;;;;4987586;28;19925;-59
2022/02/26 03:14:40;;;;;;;;;;;18.00;99.90;;;;;;5008429;28;19932;-59
2022/02/26 03:17:08;;;;;;;;;;;18.00;99.90;;;;;;5004285;28;19925;-59
2022/02/26 03:19:36;;;;;;;;;;;18.00;99.90;;;;;;5006581;28;19925;-60
2022/02/26 03:22:04;;;;;;;;;;;18.00;99.90;;;;;;5011775;28;20388;-56
2022/02/26 03:24:32;;;;;;;;;;;18.00;99.90;;;;;;5022428;28;19932;-57
2022/02/26 03:27:01;;;;;;;;;;;18.00;99.90;;;;;;5014609;28;19928;-59
2022/02/26 03:29:31;;;;;;;;;;;17.90;99.90;;;;;;5019393;28;19925;-58
2022/02/26 03:31:58;;;;;;;;;;;18.00;99.90;;;;;;5025803;28;20313;-57
2022/02/26 03:34:31;;;;;;;;;;;17.90;99.90;;;;;;5011542;28;19926;-60
2022/02/26 03:36:59;;;;;;;;;;;18.00;99.90;;;;;;5012534;28;20495;-57
2022/02/26 03:39:31;;;;;;;;;;;17.90;99.90;;;;;;4994769;28;19921;-57
2022/02/26 03:41:59;;;;;;;;;;;17.90;99.90;;;;;;5020670;28;19930;-56
2022/02/26 03:44:27;;;;;;;;;;;17.90;99.90;;;;;;5011621;28;20313;-57
2022/02/26 03:46:56;;;;;;;;;;;17.90;99.90;;;;;;5014120;28;19944;-58
2022/02/26 03:49:23;;;;;;;;;;;17.90;99.90;;;;;;5004227;28;19944;-60
2022/02/26 03:51:51;;;;;;;;;;;17.90;99.90;;;;;;5021626;28;20372;-58
2022/02/26 03:54:18;;;;;;;;;;;17.90;99.90;;;;;;5002797;28;20735;-58
2022/02/26 03:56:45;;;;;;;;;;;17.90;99.90;;;;;;5010891;28;19925;-55
2022/02/26 03:59:12;;;;;;;;;;;17.90;99.90;;;;;;5013834;28;19929;-57
2022/02/26 04:01:41;;;;;;;;;;;17.90;99.90;;;;;;5012543;28;20380;-58
2022/02/26 04:04:08;;;;;;;;;;;17.80;99.90;;;;;;5021519;28;20304;-57
2022/02/26 04:06:35;;;;;;;;;;;17.90;99.90;;;;;;5023419;28;20388;-58
2022/02/26 04:09:03;;;;;;;;;;;17.90;99.90;;;;;;5013873;28;19925;-59
2022/02/26 04:11:30;;;;;;;;;;;17.80;99.90;;;;;;5023377;28;20411;-56
2022/02/26 04:13:57;;;;;;;;;;;17.80;99.90;;;;;;5003530;28;19929;-58
2022/02/26 04:16:24;;;;;;;;;;;17.80;99.90;;;;;;5023145;28;19925;-56
2022/02/26 04:18:52;;;;;;;;;;;17.80;99.90;;;;;;5018931;28;19926;-57
2022/02/26 04:21:19;;;;;;;;;;;17.80;99.90;;;;;;5022267;28;19932;-58
2022/02/26 04:23:47;;;;;;;;;;;17.80;99.90;;;;;;5024790;28;19929;-58
2022/02/26 04:26:14;;;;;;;;;;;17.80;99.90;;;;;;5017050;28;19920;-58
2022/02/26 04:28:42;;;;;;;;;;;17.80;99.90;;;;;;5006063;28;19937;-57
2022/02/26 04:31:09;;;;;;;;;;;17.80;99.90;;;;;;5013441;28;19929;-59
2022/02/26 04:33:36;;;;;;;;;;;17.80;99.90;;;;;;5025959;28;19948;-58
2022/02/26 04:36:03;;;;;;;;;;;17.80;99.90;;;;;;5027860;28;20220;-61
2022/02/26 04:38:30;;;;;;;;;;;17.90;99.90;;;;;;5027541;28;19924;-56
2022/02/26 04:40:58;;;;;;;;;;;17.90;99.90;;;;;;5012461;28;19929;-58
2022/02/26 04:43:25;;;;;;;;;;;17.90;99.90;;;;;;5019652;28;19925;-57
2022/02/26 04:45:54;;;;;;;;;;;17.90;99.90;;;;;;5018819;28;19921;-56
2022/02/26 04:48:21;;;;;;;;;;;17.90;99.90;;;;;;5010748;28;19925;-58
2022/02/26 04:50:49;;;;;;;;;;;17.90;99.90;;;;;;4998021;28;19925;-58
2022/02/26 04:53:16;;;;;;;;;;;18.00;99.90;;;;;;5027129;28;20300;-56
2022/02/26 04:55:43;;;;;;;;;;;18.00;99.90;;;;;;5022623;28;19924;-59
2022/02/26 04:58:10;;;;;;;;;;;18.00;99.90;;;;;;5032562;28;20397;-60
2022/02/26 05:00:37;;;;;;;;;;;18.10;99.90;;;;;;5036535;28;19921;-60
2022/02/26 05:03:05;;;;;;;;;;;18.30;99.90;;;;;;5028351;28;19922;-57
2022/02/26 05:05:32;;;;;;;;;;;18.50;99.90;;;;;;5016339;28;20656;-56
2022/02/26 05:08:00;;;;;;;;;;;18.60;99.90;;;;;;5016348;28;19925;-55
2022/02/26 05:10:27;;;;;;;;;;;18.70;99.90;;;;;;5020613;28;20316;-58
2022/02/26 05:12:54;;;;;;;;;;;18.90;99.90;;;;;;5023138;28;19929;-58
2022/02/26 05:15:22;;;;;;;;;;;19.00;99.90;;;;;;5025971;28;19932;-59
2022/02/26 05:17:49;;;;;;;;;;;19.10;99.90;;;;;;5021091;28;19929;-60
2022/02/26 05:20:16;;;;;;;;;;;19.30;99.90;;;;;;5019718;28;19929;-60
2022/02/26 05:22:43;;;;;;;;;;;19.40;99.90;;;;;;5016473;28;19925;-58
2022/02/26 05:25:11;;;;;;;;;;;19.60;99.90;;;;;;5010648;28;20448;-61
2022/02/26 05:27:40;;;;;;;;;;;19.70;99.90;;;;;;5018586;28;19936;-59
2022/02/26 05:30:08;;;;;;;;;;;19.80;99.90;;;;;;5013143;28;20495;-65
2022/02/26 05:32:35;;;;;;;;;;;19.90;99.90;;;;;;5002742;28;19925;-64
2022/02/26 05:35:03;;;;;;;;;;;20.10;99.90;;;;;;5023179;28;20680;-58
2022/02/26 05:37:31;;;;;;;;;;;20.30;99.90;;;;;;5022265;28;19932;-58
2022/02/26 05:39:58;;;;;;;;;;;20.40;99.90;;;;;;5017209;28;19925;-58
2022/02/26 05:42:25;;;;;;;;;;;20.40;99.90;;;;;;5020914;28;19996;-58
2022/02/26 05:44:52;;;;;;;;;;;20.50;99.90;;;;;;5016099;28;19925;-59
2022/02/26 05:47:19;;;;;;;;;;;20.70;99.90;;;;;;5016514;28;19928;-62
2022/02/26 05:49:47;;;;;;;;;;;20.70;99.90;;;;;;5002554;28;19929;-64
2022/02/26 05:52:14;;;;;;;;;;;20.90;99.90;;;;;;5018277;28;19928;-58
2022/02/26 05:54:41;;;;;;;;;;;21.00;99.90;;;;;;5007620;28;19921;-60
2022/02/26 05:57:08;;;;;;;;;;;21.00;99.90;;;;;;5001331;28;19932;-61
2022/02/26 05:59:35;;;;;;;;;;;21.10;99.90;;;;;;4993988;28;19926;-59
2022/02/26 06:02:03;;;;;;;;;;;21.10;99.90;;;;;;5002666;28;19925;-61
2022/02/26 06:04:30;;;;;;;;;;;21.20;99.90;;;;;;5030968;28;20369;-62
2022/02/26 06:06:58;;;;;;;;;;;21.20;99.90;;;;;;4999152;28;19932;-60
2022/02/26 06:09:25;;;;;;;;;;;21.10;99.90;;;;;;4997537;28;19963;-60
2022/02/26 06:11:52;;;;;;;;;;;21.00;99.90;;;;;;5001299;28;19936;-63
2022/02/26 06:14:20;;;;;;;;;;;21.10;99.90;;;;;;4992488;28;19929;-62
2022/02/26 06:16:47;;;;;;;;;;;21.00;99.90;;;;;;4998088;28;20289;-56
2022/02/26 06:19:14;;;;;;;;;;;21.00;99.90;;;;;;5007666;28;20420;-58
2022/02/26 06:21:41;;;;;;;;;;;20.90;99.90;;;;;;5006329;28;19921;-60
2022/02/26 06:24:08;;;;;;;;;;;21.00;99.90;;;;;;4999202;28;20149;-58
2022/02/26 06:26:36;;;;;;;;;;;21.00;99.90;;;;;;4998928;28;19925;-64
2022/02/26 06:29:05;;;;;;;;;;;20.90;99.90;;;;;;5012822;28;19925;-59
2022/02/26 06:31:32;;;;;;;;;;;21.00;99.90;;;;;;5013126;28;19936;-65
2022/02/26 06:34:00;;;;;;;;;;;20.90;99.90;;;;;;5000245;28;19956;-56
2022/02/26 06:36:27;;;;;;;;;;;20.90;99.90;;;;;;4996154;28;19932;-60
2022/02/26 06:38:54;;;;;;;;;;;20.90;99.90;;;;;;4999734;28;19926;-58
2022/02/26 06:41:21;;;;;;;;;;;20.90;99.90;;;;;;4995771;28;20397;-59
2022/02/26 06:43:48;;;;;;;;;;;20.90;99.90;;;;;;5011866;28;19930;-61
2022/02/26 06:46:16;;;;;;;;;;;20.90;99.90;;;;;;5003206;28;19925;-61
2022/02/26 06:48:44;;;;;;;;;;;20.80;99.90;;;;;;4999762;28;19925;-59
2022/02/26 06:51:13;;;;;;;;;;;20.70;99.90;;;;;;5003493;28;19925;-58
2022/02/26 06:53:40;;;;;;;;;;;20.70;99.90;;;;;;4995823;28;19926;-61
2022/02/26 06:56:08;;;;;;;;;;;20.60;99.90;;;;;;4995480;28;19925;-59
2022/02/26 06:58:35;;;;;;;;;;;20.60;99.90;;;;;;5013793;28;19936;-62
2022/02/26 07:01:02;;;;;;;;;;;20.50;99.90;;;;;;5018215;28;19932;-55
2022/02/26 07:03:30;;;;;;;;;;;20.50;99.90;;;;;;5023056;28;19940;-61
2022/02/26 07:05:57;;;;;;;;;;;20.40;99.90;;;;;;5020876;28;20003;-59
2022/02/26 07:08:26;;;;;;;;;;;20.40;99.90;;;;;;5014992;28;20217;-60
2022/02/26 07:10:54;;;;;;;;;;;20.40;99.90;;;;;;5022802;28;20369;-59
2022/02/26 07:13:21;;;;;;;;;;;20.30;99.90;;;;;;5012755;28;19936;-59
2022/02/26 07:15:48;;;;;;;;;;;20.30;99.90;;;;;;5003767;28;19940;-60
2022/02/26 07:18:16;;;;;;;;;;;20.30;99.90;;;;;;5024119;28;19940;-59
2022/02/26 07:20:43;;;;;;;;;;;20.40;99.90;;;;;;5018686;28;19932;-60
2022/02/26 07:23:11;;;;;;;;;;;20.50;99.90;;;;;;5013714;28;19933;-60
2022/02/26 07:25:42;;;;;;;;;;;20.50;99.90;;;;;;5015353;28;19940;-62
2022/02/26 07:28:10;;;;;;;;;;;20.50;99.90;;;;;;5027229;28;19925;-58
2022/02/26 07:30:37;;;;;;;;;;;20.60;99.50;;;;;;5020597;28;19929;-59
2022/02/26 07:33:04;;;;;;;;;;;20.70;99.30;;;;;;5018405;28;19929;-54
2022/02/26 07:35:32;;;;;;;;;;;20.80;99.80;;;;;;5023693;28;19947;-60
2022/02/26 07:37:59;;;;;;;;;;;20.90;99.90;;;;;;5025581;28;20304;-60
2022/02/26 07:40:26;;;;;;;;;;;21.00;99.90;;;;;;5016639;28;19926;-62
2022/02/26 07:42:54;;;;;;;;;;;21.20;99.90;;;;;;5023861;28;20377;-60
2022/02/26 07:45:21;;;;;;;;;;;21.10;99.90;;;;;;5017214;28;19960;-61
2022/02/26 07:47:48;;;;;;;;;;;21.20;99.90;;;;;;5001269;28;19925;-59
2022/02/26 07:50:16;;;;;;;;;;;21.20;99.90;;;;;;5021734;28;20384;-61
2022/02/26 07:52:43;;;;;;;;;;;21.20;99.90;;;;;;5023585;28;19925;-61
2022/02/26 07:55:10;;;;;;;;;;;21.10;99.90;;;;;;5028921;28;19948;-62
2022/02/26 07:57:37;;;;;;;;;;;21.10;99.90;;;;;;5031338;28;19925;-59
2022/02/26 08:00:05;;;;;;;;;;;21.10;99.90;;;;;;5014634;28;19921;-62
2022/02/26 08:02:36;;;;;;;;;;;21.10;99.90;;;;;;5009321;28;19925;-60
2022/02/26 08:05:04;;;;;;;;;;;21.10;99.90;;;;;;5029051;28;19932;-62
2022/02/26 08:07:31;;;;;;;;;;;21.10;99.90;;;;;;5028951;28;21733;-59
2022/02/26 08:09:58;;;;;;;;;;;21.00;99.90;;;;;;5010955;28;19928;-60
2022/02/26 08:12:26;;;;;;;;;;;21.00;99.90;;;;;;5018646;28;19940;-61
2022/02/26 08:14:53;;;;;;;;;;;21.00;99.90;;;;;;5023982;28;19932;-62
2022/02/26 08:17:20;;;;;;;;;;;21.00;99.90;;;;;;5024146;28;19929;-59
2022/02/26 08:19:48;;;;;;;;;;;21.00;99.90;;;;;;4995329;28;19925;-61
2022/02/26 08:22:15;;;;;;;;;;;21.00;99.90;;;;;;5036536;28;20653;-61
2022/02/26 08:24:42;;;;;;;;;;;21.00;99.90;;;;;;5023508;28;19925;-63
2022/02/26 08:27:09;;;;;;;;;;;21.00;99.90;;;;;;5022646;28;19996;-62
2022/02/26 08:29:37;;;;;;;;;;;21.00;99.90;;;;;;5020744;28;19932;-59
2022/02/26 08:32:05;;;;;;;;;;;21.00;99.90;;;;;;5012525;28;19930;-63
2022/02/26 08:34:32;;;;;;;;;;;21.00;99.90;;;;;;5003312;28;19944;-60
2022/02/26 08:37:00;;;;;;;;;;;21.00;99.90;;;;;;5004034;28;20579;-61
2022/02/26 08:39:30;;;;;;;;;;;20.90;99.90;;;;;;5015412;28;19925;-63
2022/02/26 08:41:58;;;;;;;;;;;21.00;99.90;;;;;;5009788;28;19934;-63
2022/02/26 08:44:25;;;;;;;;;;;21.00;99.90;;;;;;5001350;28;19925;-60
2022/02/26 08:46:52;;;;;;;;;;;21.00;99.90;;;;;;5003716;28;19925;-58
2022/02/26 08:49:20;;;;;;;;;;;20.90;99.90;;;;;;5008831;28;19925;-58
2022/02/26 08:51:47;;;;;;;;;;;20.90;99.90;;;;;;5016955;28;19936;-60
2022/02/26 08:54:15;;;;;;;;;;;21.00;99.90;;;;;;5026827;28;19989;-60
2022/02/26 08:56:42;;;;;;;;;;;20.90;99.90;;;;;;5020553;28;19925;-60
2022/02/26 08:59:10;;;;;;;;;;;20.90;99.90;;;;;;5024720;28;19932;-60
2022/02/26 09:01:37;;;;;;;;;;;20.90;99.90;;;;;;5013605;28;20028;-59
2022/02/26 09:04:07;;;;;;;;;;;21.00;99.90;;;;;;5012754;28;19932;-61
2022/02/26 09:06:35;;;;;;;;;;;20.90;99.90;;;;;;5020837;28;19921;-60
2022/02/26 09:09:04;;;;;;;;;;;20.80;99.90;;;;;;5010677;28;19936;-59
2022/02/26 09:11:31;;;;;;;;;;;20.90;99.90;;;;;;5003250;28;19925;-60
2022/02/26 09:13:58;;;;;;;;;;;20.80;99.90;;;;;;5016900;28;19924;-60
2022/02/26 09:16:25;;;;;;;;;;;20.60;99.90;;;;;;5018396;28;19936;-60
2022/02/26 09:18:53;;;;;;;;;;;20.60;99.90;;;;;;5018434;28;20418;-58
2022/02/26 09:21:20;;;;;;;;;;;20.60;99.90;;;;;;5015664;28;19948;-59
2022/02/26 09:23:47;;;;;;;;;;;20.70;99.90;;;;;;5006406;28;20400;-61
2022/02/26 09:26:15;;;;;;;;;;;20.80;99.90;;;;;;5016077;28;19932;-61
2022/02/26 09:28:42;;;;;;;;;;;20.90;99.90;;;;;;5016065;28;20297;-59
2022/02/26 09:31:10;;;;;;;;;;;21.10;99.90;;;;;;4999884;28;19944;-63
2022/02/26 09:33:37;;;;;;;;;;;21.30;99.90;;;;;;4990956;28;19925;-65
2022/02/26 09:36:05;;;;;;;;;;;21.40;99.90;;;;;;5025356;28;19921;-60
2022/02/26 09:38:33;;;;;;;;;;;21.50;99.90;;;;;;5016146;28;19932;-60
2022/02/26 09:41:02;;;;;;;;;;;21.50;99.90;;;;;;5009742;28;19936;-63
2022/02/26 09:43:31;;;;;;;;;;;21.40;99.90;;;;;;5018723;28;20250;-60
2022/02/26 09:45:58;;;;;;;;;;;21.40;99.90;;;;;;5019042;28;19936;-60
2022/02/26 09:48:26;;;;;;;;;;;21.40;99.90;;;;;;5007154;28;19926;-60
2022/02/26 09:50:53;;;;;;;;;;;21.30;99.90;;;;;;4995150;28;19925;-63
2022/02/26 09:53:21;;;;;;;;;;;21.30;99.90;;;;;;5010349;28;19928;-60
2022/02/26 09:55:50;;;;;;;;;;;21.20;99.90;;;;;;5016312;28;19925;-59
2022/02/26 09:58:17;;;;;;;;;;;21.10;99.80;;;;;;4992920;28;19929;-62
2022/02/26 10:00:45;;;;;;;;;;;21.00;99.80;;;;;;5014789;28;19921;-60
2022/02/26 10:03:29;;;;;;;;;;;21.10;99.90;;;;;;5015485;28;19952;-60
2022/02/26 10:06:04;;;;;;;;;;;21.00;99.90;;;;;;5015831;28;20246;-60
2022/02/26 10:08:35;;;;;;;;;;;21.10;99.90;;;;;;5017083;28;19921;-60
2022/02/26 10:11:02;;;;;;;;;;;21.10;99.90;;;;;;5011367;28;19929;-63
2022/02/26 10:13:34;;;;;;;;;;;21.20;99.90;;;;;;5026385;28;19921;-63
2022/02/26 10:16:01;;;;;;;;;;;21.20;99.90;;;;;;5025353;28;19925;-61
2022/02/26 10:18:28;;;;;;;;;;;21.10;99.90;;;;;;5020322;28;19928;-66
2022/02/26 10:20:59;;;;;;;;;;;21.10;99.90;;;;;;5031672;28;19925;-60
2022/02/26 10:23:29;;;;;;;;;;;21.10;99.90;;;;;;5022687;28;19921;-61
2022/02/26 10:26:06;;;;;;;;;;;21.00;99.90;;;;;;5026084;28;19925;-57
2022/02/26 10:28:38;;;;;;;;;;;21.00;99.90;;;;;;5022875;28;19932;-61
2022/02/26 10:31:06;;;;;;;;;;;21.00;99.90;;;;;;5021967;28;20333;-60
2022/02/26 10:33:34;;;;;;;;;;;21.10;99.90;;;;;;5024100;28;19929;-60
2022/02/26 10:36:05;;;;;;;;;;;21.00;99.90;;;;;;5008348;28;19921;-60
2022/02/26 10:38:33;;;;;;;;;;;21.00;99.90;;;;;;5022689;28;19928;-60
2022/02/26 10:41:04;;;;;;;;;;;21.00;99.90;;;;;;5010002;28;19925;-60
2022/02/26 10:43:41;;;;;;;;;;;20.90;99.90;;;;;;5022098;28;19929;-63
2022/02/26 10:46:17;;;;;;;;;;;20.90;99.90;;;;;;5007800;28;20452;-60
2022/02/26 10:48:45;;;;;;;;;;;20.80;99.90;;;;;;5017107;28;19929;-61
2022/02/26 10:51:13;;;;;;;;;;;20.80;99.90;;;;;;5022500;28;19932;-60
2022/02/26 10:53:41;;;;;;;;;;;20.70;99.90;;;;;;5013590;28;19936;-58
2022/02/26 10:56:10;;;;;;;;;;;20.70;99.90;;;;;;5011696;28;20412;-57
2022/02/26 10:58:38;;;;;;;;;;;20.70;99.90;;;;;;5015668;28;20286;-57
2022/02/26 11:01:07;;;;;;;;;;;20.70;99.90;;;;;;5022416;28;19932;-57
2022/02/26 11:03:34;;;;;;;;;;;20.80;99.90;;;;;;5016137;28;19921;-60
2022/02/26 11:06:03;;;;;;;;;;;20.90;99.90;;;;;;5022029;28;19922;-60
2022/02/26 11:08:30;;;;;;;;;;;21.00;99.90;;;;;;5035891;28;19940;-59
2022/02/26 11:10:58;;;;;;;;;;;21.10;99.90;;;;;;5026485;28;19925;-61
2022/02/26 11:13:25;;;;;;;;;;;21.40;99.90;;;;;;5019249;28;19929;-60
2022/02/26 11:15:55;;;;;;;;;;;21.50;99.90;;;;;;5028345;28;19924;-62
2022/02/26 11:18:24;;;;;;;;;;;21.60;99.90;;;;;;5024692;28;19925;-60
2022/02/26 11:20:51;;;;;;;;;;;21.70;99.90;;;;;;5021807;28;19936;-58
2022/02/26 11:23:18;;;;;;;;;;;21.80;99.90;;;;;;5043790;28;19932;-63
2022/02/26 11:25:46;;;;;;;;;;;21.70;99.90;;;;;;5017799;28;19925;-60
2022/02/26 11:28:14;;;;;;;;;;;21.60;99.90;;;;;;5026077;28;19925;-63
2022/02/26 11:30:58;;;;;;;;;;;21.60;99.90;;;;;;4995582;28;20388;-60
2022/02/26 11:33:26;;;;;;;;;;;21.60;99.90;;;;;;5020300;28;19925;-60
2022/02/26 11:35:54;;;;;;;;;;;21.60;99.90;;;;;;5021469;28;19925;-59
2022/02/26 11:38:22;;;;;;;;;;;21.50;99.90;;;;;;5016067;28;19977;-61
2022/02/26 11:41:15;;;;;;;;;;;21.50;99.90;;;;;;5023619;28;20353;-62
2022/02/26 11:43:44;;;;;;;;;;;21.50;99.90;;;;;;5015067;28;19926;-59
2022/02/26 11:46:18;;;;;;;;;;;21.50;99.90;;;;;;5011326;28;19921;-58
2022/02/26 11:48:45;;;;;;;;;;;21.50;99.90;;;;;;5012835;28;19925;-60
2022/02/26 11:51:14;;;;;;;;;;;21.40;99.90;;;;;;5026374;28;20402;-62
2022/02/26 11:53:42;;;;;;;;;;;21.30;99.90;;;;;;5017403;28;19936;-61
2022/02/26 11:56:10;;;;;;;;;;;21.30;99.90;;;;;;5031904;28;19941;-60
2022/02/26 11:58:38;;;;;;;;;;;21.20;99.90;;;;;;5023641;28;20338;-62
2022/02/26 12:01:07;;;;;;;;;;;21.30;99.90;;;;;;5014662;28;19932;-58
2022/02/26 12:03:44;;;;;;;;;;;21.20;99.90;;;;;;5024716;28;19948;-56
2022/02/26 12:06:11;;;;;;;;;;;21.20;99.90;;;;;;5016943;28;19921;-59
2022/02/26 12:08:38;;;;;;;;;;;21.20;99.90;;;;;;5022984;28;19928;-58
2022/02/26 12:11:07;;;;;;;;;;;21.20;99.90;;;;;;5027317;28;19932;-59
2022/02/26 12:13:35;;;;;;;;;;;21.10;99.90;;;;;;5014894;28;19929;-58
2022/02/26 12:16:08;;;;;;;;;;;21.10;99.90;;;;;;5038430;28;19921;-62
2022/02/26 12:18:40;;;;;;;;;;;21.20;99.90;;;;;;5026763;28;19921;-60
2022/02/26 12:21:09;;;;;;;;;;;21.10;99.90;;;;;;5013797;28;20451;-59
2022/02/26 12:23:43;;;;;;;;;;;21.10;99.90;;;;;;5025395;28;20113;-60
2022/02/26 12:26:11;;;;;;;;;;;21.10;99.90;;;;;;5020928;28;19929;-61
2022/02/26 12:28:39;;;;;;;;;;;21.10;99.90;;;;;;5015723;28;19932;-60
2022/02/26 12:31:07;;;;;;;;;;;21.00;99.90;;;;;;5019357;28;20297;-57
2022/02/26 12:33:42;;;;;;;;;;;21.00;99.90;;;;;;5021060;28;19924;-56
2022/02/26 12:36:14;;;;;;;;;;;21.00;99.90;;;;;;5028001;28;19936;-57
2022/02/26 12:38:48;;;;;;;;;;;21.00;99.90;;;;;;5010533;28;19925;-57
2022/02/26 12:41:28;;;;;;;;;;;21.00;99.90;;;;;;5024581;28;19925;-59
2022/02/26 12:43:57;;;;;;;;;;;21.10;99.90;;;;;;5030311;28;19940;-59
2022/02/26 12:46:28;;;;;;;;;;;21.20;99.90;;;;;;5016008;28;19929;-56
2022/02/26 12:48:58;;;;;;;;;;;21.30;99.90;;;;;;5005229;28;19925;-60
2022/02/26 12:51:33;;;;;;;;;;;21.30;99.90;;;;;;5025115;28;19951;-61
2022/02/26 12:54:00;;;;;;;;;;;21.40;99.90;;;;;;5026020;28;20031;-59
2022/02/26 12:56:29;;;;;;;;;;;21.50;99.90;;;;;;5019981;28;19929;-66
2022/02/26 12:59:12;;;;;;;;;;;21.60;99.90;;;;;;5022836;28;20020;-60
2022/02/26 13:01:40;;;;;;;;;;;21.60;99.90;;;;;;5025306;28;19925;-64
2022/02/26 13:04:12;;;;;;;;;;;21.60;99.90;;;;;;5012080;28;19952;-63
2022/02/26 13:06:49;;;;;;;;;;;21.60;99.90;;;;;;5024878;28;19933;-62
2022/02/26 13:09:16;;;;;;;;;;;21.60;99.90;;;;;;5036258;28;19925;-62
2022/02/26 13:11:44;;;;;;;;;;;21.60;99.90;;;;;;5023430;28;19925;-59
2022/02/26 13:14:12;;;;;;;;;;;21.60;99.90;;;;;;5037992;28;19948;-62
2022/02/26 13:16:42;;;;;;;;;;;21.60;99.90;;;;;;5024896;28;19932;-58
2022/02/26 13:19:10;;;;;;;;;;;21.60;99.90;;;;;;5005814;28;20304;-59
2022/02/26 13:21:38;;;;;;;;;;;21.60;99.90;;;;;;5016891;28;19929;-60
2022/02/26 13:24:06;;;;;;;;;;;21.60;99.90;;;;;;5015586;28;19928;-58
2022/02/26 13:26:36;;;;;;;;;;;21.50;99.90;;;;;;5006826;28;19932;-59
2022/02/26 13:29:19;;;;;;;;;;;21.50;99.90;;;;;;5020678;28;19928;-61
2022/02/26 13:31:46;;;;;;;;;;;21.50;99.90;;;;;;5001768;28;19932;-61
2022/02/26 13:34:14;;;;;;;;;;;21.40;99.90;;;;;;5026453;28;19921;-59
2022/02/26 13:36:42;;;;;;;;;;;21.40;99.90;;;;;;5023242;28;20270;-59
2022/02/26 13:39:10;;;;;;;;;;;21.40;99.90;;;;;;5020400;28;20292;-59
2022/02/26 13:41:38;;;;;;;;;;;21.40;99.90;;;;;;5024556;28;19959;-61
2022/02/26 13:44:10;;;;;;;;;;;21.30;99.90;;;;;;5011408;28;19932;-61
2022/02/26 13:46:40;;;;;;;;;;;21.30;99.90;;;;;;5020667;28;20299;-57
2022/02/26 13:49:10;;;;;;;;;;;21.20;99.90;;;;;;5009130;28;19925;-59
2022/02/26 13:51:42;;;;;;;;;;;21.20;99.90;;;;;;5044363;28;19925;-58
2022/02/26 13:54:15;;;;;;;;;;;21.20;99.90;;;;;;5015354;28;19928;-56
2022/02/26 13:56:42;;;;;;;;;;;21.30;99.90;;;;;;5023564;28;19932;-61
2022/02/26 13:59:13;;;;;;;;;;;21.20;99.90;;;;;;5009578;28;19996;-57
2022/02/26 14:01:53;;;;;;;;;;;21.20;99.90;;;;;;5023295;28;19925;-59
2022/02/26 14:04:25;;;;;;;;;;;21.20;99.90;;;;;;5017351;28;19960;-60
2022/02/26 14:06:54;;;;;;;;;;;21.20;99.90;;;;;;5020686;28;19925;-62
2022/02/26 14:09:22;;;;;;;;;;;21.30;99.90;;;;;;5008077;28;20350;-60
2022/02/26 14:12:01;;;;;;;;;;;21.20;99.90;;;;;;5028295;28;19924;-59
2022/02/26 14:14:29;;;;;;;;;;;21.20;99.90;;;;;;5024146;28;19925;-59
2022/02/26 14:17:04;;;;;;;;;;;21.30;99.90;;;;;;5013666;28;19929;-60
2022/02/26 14:19:32;;;;;;;;;;;21.30;99.90;;;;;;5019929;28;19928;-59
2022/02/26 14:22:00;;;;;;;;;;;21.30;99.90;;;;;;5021651;28;19940;-58
2022/02/26 14:24:29;;;;;;;;;;;21.40;99.90;;;;;;5013957;28;19922;-60
2022/02/26 14:26:58;;;;;;;;;;;21.40;99.90;;;;;;5016722;28;19922;-59